Terminal Aerodrome Forecast
Issued by NWS

Home | Current Version | Previous Version | Text Only | Print | Product List | Glossary On
Versions: 1 2 3 4 5 6 7 8 9 10 11 12 13 14 15 16 17 18 19 20 21 22 23 24 25 26 27 28
000
FTPA31 PHFO 210500
TAFJRF
TAF
PHJR 210531Z 2106/2206 18006KT P6SM SCT020 BKN050
     FM210800 VRB02KT P6SM FEW020 SCT050
     FM212000 16008KT P6SM FEW020 SCT050=

USA.gov is the U.S. government's official web portal to all federal, state and local government web resources and services.